sensor_id;sensor_type;location;lat;lon;timestamp;temperature;humidity
45409;DHT22;31162;51.076;3.784;2024-02-26T00:01:41;7.40;99.90
45409;DHT22;31162;51.076;3.784;2024-02-26T00:04:09;7.40;99.90
45409;DHT22;31162;51.076;3.784;2024-02-26T00:06:35;7.40;99.90
45409;DHT22;31162;51.076;3.784;2024-02-26T00:09:01;7.40;99.90
45409;DHT22;31162;51.076;3.784;2024-02-26T00:11:28;7.50;99.90
45409;DHT22;31162;51.076;3.784;2024-02-26T00:13:53;7.40;99.90
45409;DHT22;31162;51.076;3.784;2024-02-26T00:16:19;7.40;99.90
45409;DHT22;31162;51.076;3.784;2024-02-26T00:18:44;7.50;99.90
45409;DHT22;31162;51.076;3.784;2024-02-26T00:21:11;7.40;99.90
45409;DHT22;31162;51.076;3.784;2024-02-26T00:23:37;7.40;99.90
45409;DHT22;31162;51.076;3.784;2024-02-26T00:26:02;7.50;99.90
45409;DHT22;31162;51.076;3.784;2024-02-26T00:28:29;7.50;99.90
45409;DHT22;31162;51.076;3.784;2024-02-26T00:30:54;7.40;99.90
45409;DHT22;31162;51.076;3.784;2024-02-26T00:33:21;7.40;99.90
45409;DHT22;31162;51.076;3.784;2024-02-26T00:35:47;7.40;99.90
45409;DHT22;31162;51.076;3.784;2024-02-26T00:38:13;7.40;99.90
45409;DHT22;31162;51.076;3.784;2024-02-26T00:40:39;7.40;99.90
45409;DHT22;31162;51.076;3.784;2024-02-26T00:43:06;7.40;99.90
45409;DHT22;31162;51.076;3.784;2024-02-26T00:45:32;7.40;99.90
45409;DHT22;31162;51.076;3.784;2024-02-26T00:47:58;7.40;99.90
45409;DHT22;31162;51.076;3.784;2024-02-26T00:50:24;7.30;99.90
45409;DHT22;31162;51.076;3.784;2024-02-26T00:52:49;7.20;99.90
45409;DHT22;31162;51.076;3.784;2024-02-26T00:55:15;7.20;99.90
45409;DHT22;31162;51.076;3.784;2024-02-26T00:57:41;7.20;99.90
45409;DHT22;31162;51.076;3.784;2024-02-26T01:00:07;7.20;99.90
45409;DHT22;31162;51.076;3.784;2024-02-26T01:02:36;7.10;99.90
45409;DHT22;31162;51.076;3.784;2024-02-26T01:05:02;7.10;99.90
45409;DHT22;31162;51.076;3.784;2024-02-26T01:07:28;7.10;99.90
45409;DHT22;31162;51.076;3.784;2024-02-26T01:09:53;7.10;99.90
45409;DHT22;31162;51.076;3.784;2024-02-26T01:12:19;7.10;99.90
45409;DHT22;31162;51.076;3.784;2024-02-26T01:14:45;7.20;99.90
45409;DHT22;31162;51.076;3.784;2024-02-26T01:17:10;7.20;99.90
45409;DHT22;31162;51.076;3.784;2024-02-26T01:19:36;7.20;99.90
45409;DHT22;31162;51.076;3.784;2024-02-26T01:22:02;7.10;99.90
45409;DHT22;31162;51.076;3.784;2024-02-26T01:24:28;7.10;99.90
45409;DHT22;31162;51.076;3.784;2024-02-26T01:26:54;7.00;99.90
45409;DHT22;31162;51.076;3.784;2024-02-26T01:29:20;7.10;99.90
45409;DHT22;31162;51.076;3.784;2024-02-26T01:31:45;7.10;99.90
45409;DHT22;31162;51.076;3.784;2024-02-26T01:34:11;7.20;99.90
45409;DHT22;31162;51.076;3.784;2024-02-26T01:36:36;7.20;99.90
45409;DHT22;31162;51.076;3.784;2024-02-26T01:39:02;7.10;99.90
45409;DHT22;31162;51.076;3.784;2024-02-26T01:41:28;7.20;99.90
45409;DHT22;31162;51.076;3.784;2024-02-26T01:43:54;7.10;99.90
45409;DHT22;31162;51.076;3.784;2024-02-26T01:46:20;7.10;99.90
45409;DHT22;31162;51.076;3.784;2024-02-26T01:48:47;7.10;99.90
45409;DHT22;31162;51.076;3.784;2024-02-26T01:51:15;7.10;99.90
45409;DHT22;31162;51.076;3.784;2024-02-26T01:53:43;7.00;99.90
45409;DHT22;31162;51.076;3.784;2024-02-26T01:56:09;7.00;99.90
45409;DHT22;31162;51.076;3.784;2024-02-26T01:58:35;7.00;99.90
45409;DHT22;31162;51.076;3.784;2024-02-26T02:01:02;7.00;99.90
45409;DHT22;31162;51.076;3.784;2024-02-26T02:03:28;7.00;99.90
45409;DHT22;31162;51.076;3.784;2024-02-26T02:05:55;7.00;99.90
45409;DHT22;31162;51.076;3.784;2024-02-26T02:08:22;6.90;99.90
45409;DHT22;31162;51.076;3.784;2024-02-26T02:10:49;6.90;99.90
45409;DHT22;31162;51.076;3.784;2024-02-26T02:13:15;7.00;99.90
45409;DHT22;31162;51.076;3.784;2024-02-26T02:15:41;7.00;99.90
45409;DHT22;31162;51.076;3.784;2024-02-26T02:18:07;7.00;99.90
45409;DHT22;31162;51.076;3.784;2024-02-26T02:20:33;7.00;99.90
45409;DHT22;31162;51.076;3.784;2024-02-26T02:23:02;7.10;99.90
45409;DHT22;31162;51.076;3.784;2024-02-26T02:25:28;7.00;99.90
45409;DHT22;31162;51.076;3.784;2024-02-26T02:27:54;7.00;99.90
45409;DHT22;31162;51.076;3.784;2024-02-26T02:30:25;7.00;99.90
45409;DHT22;31162;51.076;3.784;2024-02-26T02:32:52;7.00;99.90
45409;DHT22;31162;51.076;3.784;2024-02-26T02:35:17;7.00;99.90
45409;DHT22;31162;51.076;3.784;2024-02-26T02:37:43;7.00;99.90
45409;DHT22;31162;51.076;3.784;2024-02-26T02:40:09;6.90;99.90
45409;DHT22;31162;51.076;3.784;2024-02-26T02:42:34;6.90;99.90
45409;DHT22;31162;51.076;3.784;2024-02-26T02:45:00;6.90;99.90
45409;DHT22;31162;51.076;3.784;2024-02-26T02:47:26;6.90;99.90
45409;DHT22;31162;51.076;3.784;2024-02-26T02:49:51;7.00;99.90
45409;DHT22;31162;51.076;3.784;2024-02-26T02:52:17;6.90;99.90
45409;DHT22;31162;51.076;3.784;2024-02-26T02:54:43;6.90;99.90
45409;DHT22;31162;51.076;3.784;2024-02-26T02:57:08;6.90;99.90
45409;DHT22;31162;51.076;3.784;2024-02-26T02:59:35;6.80;99.90
45409;DHT22;31162;51.076;3.784;2024-02-26T03:02:01;6.90;99.90
45409;DHT22;31162;51.076;3.784;2024-02-26T03:04:27;7.00;99.90
45409;DHT22;31162;51.076;3.784;2024-02-26T03:06:52;7.00;99.90
45409;DHT22;31162;51.076;3.784;2024-02-26T03:09:18;6.90;99.90
45409;DHT22;31162;51.076;3.784;2024-02-26T03:11:44;6.80;99.90
45409;DHT22;31162;51.076;3.784;2024-02-26T03:14:09;6.90;99.90
45409;DHT22;31162;51.076;3.784;2024-02-26T03:16:35;6.90;99.90
45409;DHT22;31162;51.076;3.784;2024-02-26T03:19:01;6.80;99.90
45409;DHT22;31162;51.076;3.784;2024-02-26T03:21:28;6.70;99.90
45409;DHT22;31162;51.076;3.784;2024-02-26T03:23:54;6.70;99.90
45409;DHT22;31162;51.076;3.784;2024-02-26T03:26:20;6.70;99.90
45409;DHT22;31162;51.076;3.784;2024-02-26T03:28:47;6.70;99.90
45409;DHT22;31162;51.076;3.784;2024-02-26T03:31:12;6.60;99.90
45409;DHT22;31162;51.076;3.784;2024-02-26T03:33:38;6.70;99.90
45409;DHT22;31162;51.076;3.784;2024-02-26T03:36:04;6.60;99.90
45409;DHT22;31162;51.076;3.784;2024-02-26T03:38:30;6.50;99.90
45409;DHT22;31162;51.076;3.784;2024-02-26T03:40:55;6.50;99.90
45409;DHT22;31162;51.076;3.784;2024-02-26T03:43:21;6.50;99.90
45409;DHT22;31162;51.076;3.784;2024-02-26T03:45:47;6.50;99.90
45409;DHT22;31162;51.076;3.784;2024-02-26T03:48:13;6.50;99.90
45409;DHT22;31162;51.076;3.784;2024-02-26T03:50:39;6.50;99.90
45409;DHT22;31162;51.076;3.784;2024-02-26T03:53:04;6.50;99.90
45409;DHT22;31162;51.076;3.784;2024-02-26T03:55:30;6.50;99.90
45409;DHT22;31162;51.076;3.784;2024-02-26T03:57:56;6.50;99.90
45409;DHT22;31162;51.076;3.784;2024-02-26T04:00:21;6.50;99.90
45409;DHT22;31162;51.076;3.784;2024-02-26T04:02:47;6.60;99.90
45409;DHT22;31162;51.076;3.784;2024-02-26T04:05:13;6.60;99.90
45409;DHT22;31162;51.076;3.784;2024-02-26T04:07:42;6.60;99.90
45409;DHT22;31162;51.076;3.784;2024-02-26T04:10:09;6.60;99.90
45409;DHT22;31162;51.076;3.784;2024-02-26T04:12:35;6.50;99.90
45409;DHT22;31162;51.076;3.784;2024-02-26T04:15:00;6.60;99.90
45409;DHT22;31162;51.076;3.784;2024-02-26T04:17:26;6.60;99.90
45409;DHT22;31162;51.076;3.784;2024-02-26T04:19:52;6.60;99.90
45409;DHT22;31162;51.076;3.784;2024-02-26T04:22:17;6.60;99.90
45409;DHT22;31162;51.076;3.784;2024-02-26T04:24:43;6.50;99.90
45409;DHT22;31162;51.076;3.784;2024-02-26T04:27:09;6.50;99.90
45409;DHT22;31162;51.076;3.784;2024-02-26T04:29:34;6.50;99.90
45409;DHT22;31162;51.076;3.784;2024-02-26T04:32:00;6.50;99.90
45409;DHT22;31162;51.076;3.784;2024-02-26T04:34:25;6.60;99.90
45409;DHT22;31162;51.076;3.784;2024-02-26T04:36:51;6.60;99.90
45409;DHT22;31162;51.076;3.784;2024-02-26T04:39:17;6.50;99.90
45409;DHT22;31162;51.076;3.784;2024-02-26T04:41:42;6.60;99.90
45409;DHT22;31162;51.076;3.784;2024-02-26T04:44:08;6.60;99.90
45409;DHT22;31162;51.076;3.784;2024-02-26T04:46:33;6.60;99.90
45409;DHT22;31162;51.076;3.784;2024-02-26T04:49:00;6.60;99.90
45409;DHT22;31162;51.076;3.784;2024-02-26T04:51:25;6.60;99.90
45409;DHT22;31162;51.076;3.784;2024-02-26T04:53:51;6.70;99.90
45409;DHT22;31162;51.076;3.784;2024-02-26T04:56:20;6.70;99.90
45409;DHT22;31162;51.076;3.784;2024-02-26T04:58:46;6.70;99.90
45409;DHT22;31162;51.076;3.784;2024-02-26T05:01:11;6.70;99.90
45409;DHT22;31162;51.076;3.784;2024-02-26T05:03:37;6.60;99.90
45409;DHT22;31162;51.076;3.784;2024-02-26T05:06:04;6.70;99.90
45409;DHT22;31162;51.076;3.784;2024-02-26T05:08:30;6.60;99.90
45409;DHT22;31162;51.076;3.784;2024-02-26T05:10:56;6.60;99.90
45409;DHT22;31162;51.076;3.784;2024-02-26T05:13:22;6.60;99.90
45409;DHT22;31162;51.076;3.784;2024-02-26T05:15:47;6.60;99.90
45409;DHT22;31162;51.076;3.784;2024-02-26T05:18:15;6.60;99.90
45409;DHT22;31162;51.076;3.784;2024-02-26T05:20:41;6.60;99.90
45409;DHT22;31162;51.076;3.784;2024-02-26T05:23:06;6.60;99.90
45409;DHT22;31162;51.076;3.784;2024-02-26T05:25:32;6.60;99.90
45409;DHT22;31162;51.076;3.784;2024-02-26T05:27:58;6.50;99.90
45409;DHT22;31162;51.076;3.784;2024-02-26T05:30:23;6.50;99.90
45409;DHT22;31162;51.076;3.784;2024-02-26T05:32:49;6.50;99.90
45409;DHT22;31162;51.076;3.784;2024-02-26T05:35:14;6.50;99.90
45409;DHT22;31162;51.076;3.784;2024-02-26T05:37:40;6.50;99.90
45409;DHT22;31162;51.076;3.784;2024-02-26T05:40:06;6.50;99.90
45409;DHT22;31162;51.076;3.784;2024-02-26T05:42:32;6.50;99.90
45409;DHT22;31162;51.076;3.784;2024-02-26T05:44:58;6.40;99.90
45409;DHT22;31162;51.076;3.784;2024-02-26T05:47:24;6.50;99.90
45409;DHT22;31162;51.076;3.784;2024-02-26T05:49:50;6.50;99.90
45409;DHT22;31162;51.076;3.784;2024-02-26T05:52:15;6.40;99.90
45409;DHT22;31162;51.076;3.784;2024-02-26T05:54:41;6.40;99.90
45409;DHT22;31162;51.076;3.784;2024-02-26T05:57:06;6.40;99.90
45409;DHT22;31162;51.076;3.784;2024-02-26T05:59:32;6.40;99.90
45409;DHT22;31162;51.076;3.784;2024-02-26T06:01:58;6.40;99.90
45409;DHT22;31162;51.076;3.784;2024-02-26T06:04:24;6.40;99.90
45409;DHT22;31162;51.076;3.784;2024-02-26T06:06:49;6.40;99.90
45409;DHT22;31162;51.076;3.784;2024-02-26T06:09:15;6.40;99.90
45409;DHT22;31162;51.076;3.784;2024-02-26T06:11:41;6.40;99.90
45409;DHT22;31162;51.076;3.784;2024-02-26T06:14:06;6.40;99.90
45409;DHT22;31162;51.076;3.784;2024-02-26T06:16:32;6.40;99.90
45409;DHT22;31162;51.076;3.784;2024-02-26T06:18:58;6.40;99.90
45409;DHT22;31162;51.076;3.784;2024-02-26T06:21:25;6.30;99.90
45409;DHT22;31162;51.076;3.784;2024-02-26T06:23:51;6.30;99.90
45409;DHT22;31162;51.076;3.784;2024-02-26T06:26:17;6.30;99.90
45409;DHT22;31162;51.076;3.784;2024-02-26T06:28:42;6.30;99.90
45409;DHT22;31162;51.076;3.784;2024-02-26T06:31:08;6.40;99.90
45409;DHT22;31162;51.076;3.784;2024-02-26T06:33:34;6.30;99.90
45409;DHT22;31162;51.076;3.784;2024-02-26T06:35:59;6.30;99.90
45409;DHT22;31162;51.076;3.784;2024-02-26T06:38:25;6.30;99.90
45409;DHT22;31162;51.076;3.784;2024-02-26T06:40:51;6.30;99.90
45409;DHT22;31162;51.076;3.784;2024-02-26T06:43:16;6.30;99.90
45409;DHT22;31162;51.076;3.784;2024-02-26T06:45:42;6.30;99.90
45409;DHT22;31162;51.076;3.784;2024-02-26T06:48:07;6.30;99.90
45409;DHT22;31162;51.076;3.784;2024-02-26T06:50:33;6.30;99.90
45409;DHT22;31162;51.076;3.784;2024-02-26T06:52:59;6.30;99.90
45409;DHT22;31162;51.076;3.784;2024-02-26T06:55:25;6.30;99.90
45409;DHT22;31162;51.076;3.784;2024-02-26T06:57:50;6.30;99.90
45409;DHT22;31162;51.076;3.784;2024-02-26T07:00:16;6.30;99.90
45409;DHT22;31162;51.076;3.784;2024-02-26T07:02:45;6.20;99.90
45409;DHT22;31162;51.076;3.784;2024-02-26T07:05:11;6.30;99.90
45409;DHT22;31162;51.076;3.784;2024-02-26T07:07:36;6.30;99.90
45409;DHT22;31162;51.076;3.784;2024-02-26T07:10:02;6.30;99.90
45409;DHT22;31162;51.076;3.784;2024-02-26T07:12:30;6.30;99.90
45409;DHT22;31162;51.076;3.784;2024-02-26T07:14:55;6.30;99.90
45409;DHT22;31162;51.076;3.784;2024-02-26T07:17:21;6.20;99.90
45409;DHT22;31162;51.076;3.784;2024-02-26T07:19:47;6.30;99.90
45409;DHT22;31162;51.076;3.784;2024-02-26T07:22:12;6.20;99.90
45409;DHT22;31162;51.076;3.784;2024-02-26T07:24:39;6.30;99.90
45409;DHT22;31162;51.076;3.784;2024-02-26T07:27:04;6.30;99.90
45409;DHT22;31162;51.076;3.784;2024-02-26T07:29:30;6.30;99.90
45409;DHT22;31162;51.076;3.784;2024-02-26T07:31:56;6.30;99.90
45409;DHT22;31162;51.076;3.784;2024-02-26T07:34:22;6.30;99.90
45409;DHT22;31162;51.076;3.784;2024-02-26T07:36:53;6.30;99.90
45409;DHT22;31162;51.076;3.784;2024-02-26T07:39:19;6.30;99.90
45409;DHT22;31162;51.076;3.784;2024-02-26T07:41:44;6.30;99.90
45409;DHT22;31162;51.076;3.784;2024-02-26T07:44:14;6.30;99.90
45409;DHT22;31162;51.076;3.784;2024-02-26T07:46:39;6.30;99.90
45409;DHT22;31162;51.076;3.784;2024-02-26T07:49:05;6.20;99.90
45409;DHT22;31162;51.076;3.784;2024-02-26T07:51:30;6.30;99.90
45409;DHT22;31162;51.076;3.784;2024-02-26T07:53:56;6.30;99.90
45409;DHT22;31162;51.076;3.784;2024-02-26T07:56:22;6.20;99.90
45409;DHT22;31162;51.076;3.784;2024-02-26T07:58:48;6.20;99.90
45409;DHT22;31162;51.076;3.784;2024-02-26T08:01:14;6.20;99.90
45409;DHT22;31162;51.076;3.784;2024-02-26T08:03:40;6.20;99.90
45409;DHT22;31162;51.076;3.784;2024-02-26T08:06:06;6.20;99.90
45409;DHT22;31162;51.076;3.784;2024-02-26T08:08:33;6.30;99.90
45409;DHT22;31162;51.076;3.784;2024-02-26T08:10:58;6.30;99.90
45409;DHT22;31162;51.076;3.784;2024-02-26T08:13:24;6.40;99.90
45409;DHT22;31162;51.076;3.784;2024-02-26T08:15:50;6.30;99.90
45409;DHT22;31162;51.076;3.784;2024-02-26T08:18:15;6.20;99.90
45409;DHT22;31162;51.076;3.784;2024-02-26T08:20:41;6.30;99.90
45409;DHT22;31162;51.076;3.784;2024-02-26T08:23:07;6.30;99.90
45409;DHT22;31162;51.076;3.784;2024-02-26T08:25:32;6.20;99.90
45409;DHT22;31162;51.076;3.784;2024-02-26T08:27:58;6.20;99.90
45409;DHT22;31162;51.076;3.784;2024-02-26T08:30:24;6.30;99.90
45409;DHT22;31162;51.076;3.784;2024-02-26T08:32:49;6.30;99.90
45409;DHT22;31162;51.076;3.784;2024-02-26T08:35:15;6.30;99.90
45409;DHT22;31162;51.076;3.784;2024-02-26T08:37:44;6.30;99.90
45409;DHT22;31162;51.076;3.784;2024-02-26T08:40:10;6.30;99.90
45409;DHT22;31162;51.076;3.784;2024-02-26T08:42:36;6.20;99.90
45409;DHT22;31162;51.076;3.784;2024-02-26T08:45:02;6.20;99.90
45409;DHT22;31162;51.076;3.784;2024-02-26T08:47:28;6.30;99.90
45409;DHT22;31162;51.076;3.784;2024-02-26T08:49:54;6.30;99.90
45409;DHT22;31162;51.076;3.784;2024-02-26T08:52:20;6.30;99.90
45409;DHT22;31162;51.076;3.784;2024-02-26T08:54:47;6.20;99.90
45409;DHT22;31162;51.076;3.784;2024-02-26T08:57:13;6.20;99.90
45409;DHT22;31162;51.076;3.784;2024-02-26T08:59:38;6.10;99.90
45409;DHT22;31162;51.076;3.784;2024-02-26T09:02:04;6.10;99.90
45409;DHT22;31162;51.076;3.784;2024-02-26T09:04:29;6.10;99.90
45409;DHT22;31162;51.076;3.784;2024-02-26T09:06:55;6.10;99.90
45409;DHT22;31162;51.076;3.784;2024-02-26T09:09:20;6.10;99.90
45409;DHT22;31162;51.076;3.784;2024-02-26T09:11:48;6.10;99.90
45409;DHT22;31162;51.076;3.784;2024-02-26T09:14:17;6.10;99.90
45409;DHT22;31162;51.076;3.784;2024-02-26T09:16:42;6.10;99.90
45409;DHT22;31162;51.076;3.784;2024-02-26T09:19:08;6.10;99.90
45409;DHT22;31162;51.076;3.784;2024-02-26T09:21:34;6.10;99.90
45409;DHT22;31162;51.076;3.784;2024-02-26T09:23:59;6.20;99.90
45409;DHT22;31162;51.076;3.784;2024-02-26T09:26:25;6.10;99.90
45409;DHT22;31162;51.076;3.784;2024-02-26T09:28:50;6.10;99.90
45409;DHT22;31162;51.076;3.784;2024-02-26T09:31:17;6.10;99.90
45409;DHT22;31162;51.076;3.784;2024-02-26T09:33:43;6.10;99.90
45409;DHT22;31162;51.076;3.784;2024-02-26T09:36:09;6.10;99.90
45409;DHT22;31162;51.076;3.784;2024-02-26T09:38:36;6.10;99.90
45409;DHT22;31162;51.076;3.784;2024-02-26T09:41:04;6.10;99.90
45409;DHT22;31162;51.076;3.784;2024-02-26T09:43:35;6.10;99.90
45409;DHT22;31162;51.076;3.784;2024-02-26T09:46:02;6.10;99.90
45409;DHT22;31162;51.076;3.784;2024-02-26T09:48:29;6.20;99.90
45409;DHT22;31162;51.076;3.784;2024-02-26T09:50:55;6.10;99.90
45409;DHT22;31162;51.076;3.784;2024-02-26T09:53:22;6.10;99.90
45409;DHT22;31162;51.076;3.784;2024-02-26T09:55:48;6.10;99.90
45409;DHT22;31162;51.076;3.784;2024-02-26T09:58:14;6.20;99.90
45409;DHT22;31162;51.076;3.784;2024-02-26T10:00:46;6.20;99.90
45409;DHT22;31162;51.076;3.784;2024-02-26T10:03:13;6.20;99.90
45409;DHT22;31162;51.076;3.784;2024-02-26T10:05:41;6.20;99.90
45409;DHT22;31162;51.076;3.784;2024-02-26T10:08:09;6.30;99.90
45409;DHT22;31162;51.076;3.784;2024-02-26T10:10:36;6.30;99.90
45409;DHT22;31162;51.076;3.784;2024-02-26T10:13:04;6.30;99.90
45409;DHT22;31162;51.076;3.784;2024-02-26T10:15:35;6.20;99.90
45409;DHT22;31162;51.076;3.784;2024-02-26T10:18:04;6.20;99.90
45409;DHT22;31162;51.076;3.784;2024-02-26T10:20:30;6.20;99.90
45409;DHT22;31162;51.076;3.784;2024-02-26T10:22:57;6.20;99.90
45409;DHT22;31162;51.076;3.784;2024-02-26T10:25:23;6.20;99.90
45409;DHT22;31162;51.076;3.784;2024-02-26T10:27:49;6.30;99.90
45409;DHT22;31162;51.076;3.784;2024-02-26T10:30:17;6.30;99.90
45409;DHT22;31162;51.076;3.784;2024-02-26T10:32:49;6.20;99.90
45409;DHT22;31162;51.076;3.784;2024-02-26T10:35:15;6.20;99.90
45409;DHT22;31162;51.076;3.784;2024-02-26T10:37:41;6.20;99.90
45409;DHT22;31162;51.076;3.784;2024-02-26T10:40:11;6.20;99.90
45409;DHT22;31162;51.076;3.784;2024-02-26T10:42:37;6.20;99.90
45409;DHT22;31162;51.076;3.784;2024-02-26T10:45:05;6.20;99.90
45409;DHT22;31162;51.076;3.784;2024-02-26T10:47:31;6.20;99.90
45409;DHT22;31162;51.076;3.784;2024-02-26T10:49:59;6.30;99.90
45409;DHT22;31162;51.076;3.784;2024-02-26T10:52:25;6.30;99.90
45409;DHT22;31162;51.076;3.784;2024-02-26T10:54:54;6.30;99.90
45409;DHT22;31162;51.076;3.784;2024-02-26T10:57:21;6.30;99.90
45409;DHT22;31162;51.076;3.784;2024-02-26T10:59:48;6.40;99.90
45409;DHT22;31162;51.076;3.784;2024-02-26T11:02:14;6.40;99.90
45409;DHT22;31162;51.076;3.784;2024-02-26T11:04:41;6.30;99.90
45409;DHT22;31162;51.076;3.784;2024-02-26T11:07:09;6.30;99.90
45409;DHT22;31162;51.076;3.784;2024-02-26T11:09:35;6.30;99.90
45409;DHT22;31162;51.076;3.784;2024-02-26T11:12:08;6.30;99.90
45409;DHT22;31162;51.076;3.784;2024-02-26T11:14:36;6.30;99.90
45409;DHT22;31162;51.076;3.784;2024-02-26T11:17:02;6.30;99.90
45409;DHT22;31162;51.076;3.784;2024-02-26T11:19:28;6.30;99.90
45409;DHT22;31162;51.076;3.784;2024-02-26T11:21:55;6.40;99.90
45409;DHT22;31162;51.076;3.784;2024-02-26T11:24:21;6.40;99.90
45409;DHT22;31162;51.076;3.784;2024-02-26T11:26:56;6.40;99.90
45409;DHT22;31162;51.076;3.784;2024-02-26T11:29:29;6.40;99.90
45409;DHT22;31162;51.076;3.784;2024-02-26T11:31:59;6.40;99.90
45409;DHT22;31162;51.076;3.784;2024-02-26T11:34:26;6.40;99.90
45409;DHT22;31162;51.076;3.784;2024-02-26T11:36:52;6.50;99.90
45409;DHT22;31162;51.076;3.784;2024-02-26T11:39:18;6.50;99.90
45409;DHT22;31162;51.076;3.784;2024-02-26T11:41:43;6.50;99.90
45409;DHT22;31162;51.076;3.784;2024-02-26T11:44:09;6.40;99.90
45409;DHT22;31162;51.076;3.784;2024-02-26T11:46:42;6.50;99.90
45409;DHT22;31162;51.076;3.784;2024-02-26T11:51:57;6.40;99.90
45409;DHT22;31162;51.076;3.784;2024-02-26T11:54:51;6.50;99.90
45409;DHT22;31162;51.076;3.784;2024-02-26T12:02:45;6.40;99.90
45409;DHT22;31162;51.076;3.784;2024-02-26T12:05:20;6.40;99.90
45409;DHT22;31162;51.076;3.784;2024-02-26T12:08:09;6.40;99.90
45409;DHT22;31162;51.076;3.784;2024-02-26T12:10:39;6.40;99.90
45409;DHT22;31162;51.076;3.784;2024-02-26T12:13:12;6.40;99.90
45409;DHT22;31162;51.076;3.784;2024-02-26T12:15:41;6.50;99.90
45409;DHT22;31162;51.076;3.784;2024-02-26T12:18:09;6.40;99.90
45409;DHT22;31162;51.076;3.784;2024-02-26T12:20:38;6.30;99.90
45409;DHT22;31162;51.076;3.784;2024-02-26T12:23:04;6.30;99.90
45409;DHT22;31162;51.076;3.784;2024-02-26T12:25:31;6.30;99.90
45409;DHT22;31162;51.076;3.784;2024-02-26T12:27:57;6.40;99.90
45409;DHT22;31162;51.076;3.784;2024-02-26T12:30:23;6.30;99.90
45409;DHT22;31162;51.076;3.784;2024-02-26T12:32:50;6.30;99.90
45409;DHT22;31162;51.076;3.784;2024-02-26T12:35:17;6.40;99.90
45409;DHT22;31162;51.076;3.784;2024-02-26T12:37:46;6.40;99.90
45409;DHT22;31162;51.076;3.784;2024-02-26T12:40:12;6.50;99.90
45409;DHT22;31162;51.076;3.784;2024-02-26T12:42:41;6.50;99.90
45409;DHT22;31162;51.076;3.784;2024-02-26T12:45:09;6.40;99.90
45409;DHT22;31162;51.076;3.784;2024-02-26T12:47:42;6.30;99.90
45409;DHT22;31162;51.076;3.784;2024-02-26T12:50:09;6.40;99.90
45409;DHT22;31162;51.076;3.784;2024-02-26T12:52:37;6.40;99.90
45409;DHT22;31162;51.076;3.784;2024-02-26T12:55:05;6.50;99.90
45409;DHT22;31162;51.076;3.784;2024-02-26T12:57:33;6.40;99.90
45409;DHT22;31162;51.076;3.784;2024-02-26T13:00:02;6.40;99.90
45409;DHT22;31162;51.076;3.784;2024-02-26T13:02:30;6.40;99.90
45409;DHT22;31162;51.076;3.784;2024-02-26T13:04:57;6.50;99.90
45409;DHT22;31162;51.076;3.784;2024-02-26T13:07:23;6.50;99.90
45409;DHT22;31162;51.076;3.784;2024-02-26T13:09:49;6.50;99.90
45409;DHT22;31162;51.076;3.784;2024-02-26T13:12:16;6.50;99.90
45409;DHT22;31162;51.076;3.784;2024-02-26T13:14:42;6.50;99.90
45409;DHT22;31162;51.076;3.784;2024-02-26T13:17:08;6.50;99.90
45409;DHT22;31162;51.076;3.784;2024-02-26T13:19:34;6.60;99.90
45409;DHT22;31162;51.076;3.784;2024-02-26T13:22:06;6.60;99.90
45409;DHT22;31162;51.076;3.784;2024-02-26T13:24:33;6.60;99.90
45409;DHT22;31162;51.076;3.784;2024-02-26T13:26:59;6.50;99.90
45409;DHT22;31162;51.076;3.784;2024-02-26T13:29:25;6.50;99.90
45409;DHT22;31162;51.076;3.784;2024-02-26T13:31:58;6.50;99.90
45409;DHT22;31162;51.076;3.784;2024-02-26T13:34:28;6.60;99.90
45409;DHT22;31162;51.076;3.784;2024-02-26T13:36:54;6.60;99.90
45409;DHT22;31162;51.076;3.784;2024-02-26T13:39:27;6.60;99.90
45409;DHT22;31162;51.076;3.784;2024-02-26T13:41:54;6.60;99.90
45409;DHT22;31162;51.076;3.784;2024-02-26T13:44:20;6.60;99.90
45409;DHT22;31162;51.076;3.784;2024-02-26T13:46:47;6.60;99.90
45409;DHT22;31162;51.076;3.784;2024-02-26T13:49:13;6.50;99.90
45409;DHT22;31162;51.076;3.784;2024-02-26T13:51:39;6.50;99.90
45409;DHT22;31162;51.076;3.784;2024-02-26T13:54:05;6.50;99.90
45409;DHT22;31162;51.076;3.784;2024-02-26T13:56:31;6.60;99.90
45409;DHT22;31162;51.076;3.784;2024-02-26T13:58:58;6.60;99.90
45409;DHT22;31162;51.076;3.784;2024-02-26T14:01:24;6.50;99.90
45409;DHT22;31162;51.076;3.784;2024-02-26T14:03:49;6.50;99.90
45409;DHT22;31162;51.076;3.784;2024-02-26T14:06:16;6.60;99.90
45409;DHT22;31162;51.076;3.784;2024-02-26T14:08:42;6.50;99.90
45409;DHT22;31162;51.076;3.784;2024-02-26T14:11:07;6.50;99.90
45409;DHT22;31162;51.076;3.784;2024-02-26T14:13:33;6.50;99.90
45409;DHT22;31162;51.076;3.784;2024-02-26T14:15:59;6.60;99.90
45409;DHT22;31162;51.076;3.784;2024-02-26T14:18:25;6.60;99.90
45409;DHT22;31162;51.076;3.784;2024-02-26T14:20:50;6.60;99.90
45409;DHT22;31162;51.076;3.784;2024-02-26T14:23:17;6.60;99.90
45409;DHT22;31162;51.076;3.784;2024-02-26T14:25:42;6.60;99.90
45409;DHT22;31162;51.076;3.784;2024-02-26T14:28:08;6.50;99.90
45409;DHT22;31162;51.076;3.784;2024-02-26T14:30:34;6.50;99.90
45409;DHT22;31162;51.076;3.784;2024-02-26T14:33:00;6.50;99.90
45409;DHT22;31162;51.076;3.784;2024-02-26T14:35:26;6.60;99.90
45409;DHT22;31162;51.076;3.784;2024-02-26T14:37:52;6.60;99.90
45409;DHT22;31162;51.076;3.784;2024-02-26T14:40:18;6.70;99.90
45409;DHT22;31162;51.076;3.784;2024-02-26T14:42:44;6.70;99.90
45409;DHT22;31162;51.076;3.784;2024-02-26T14:45:10;6.70;99.90
45409;DHT22;31162;51.076;3.784;2024-02-26T14:47:36;6.70;99.90
45409;DHT22;31162;51.076;3.784;2024-02-26T14:50:03;6.70;99.90
45409;DHT22;31162;51.076;3.784;2024-02-26T14:52:29;6.70;99.90
45409;DHT22;31162;51.076;3.784;2024-02-26T14:54:54;6.70;99.90
45409;DHT22;31162;51.076;3.784;2024-02-26T14:57:20;6.60;99.90
45409;DHT22;31162;51.076;3.784;2024-02-26T14:59:45;6.60;99.90
45409;DHT22;31162;51.076;3.784;2024-02-26T15:02:11;6.60;99.90
45409;DHT22;31162;51.076;3.784;2024-02-26T15:04:37;6.60;99.90
45409;DHT22;31162;51.076;3.784;2024-02-26T15:07:03;6.60;99.90
45409;DHT22;31162;51.076;3.784;2024-02-26T15:09:29;6.60;99.90
45409;DHT22;31162;51.076;3.784;2024-02-26T15:11:55;6.60;99.90
45409;DHT22;31162;51.076;3.784;2024-02-26T15:14:23;6.60;99.90
45409;DHT22;31162;51.076;3.784;2024-02-26T15:16:49;6.60;99.90
45409;DHT22;31162;51.076;3.784;2024-02-26T15:19:16;6.70;99.90
45409;DHT22;31162;51.076;3.784;2024-02-26T15:21:45;6.70;99.90
45409;DHT22;31162;51.076;3.784;2024-02-26T15:24:11;6.70;99.90
45409;DHT22;31162;51.076;3.784;2024-02-26T15:26:37;6.70;99.90
45409;DHT22;31162;51.076;3.784;2024-02-26T15:29:03;6.60;99.90
45409;DHT22;31162;51.076;3.784;2024-02-26T15:31:29;6.50;99.90
45409;DHT22;31162;51.076;3.784;2024-02-26T15:33:56;6.50;99.90
45409;DHT22;31162;51.076;3.784;2024-02-26T15:36:22;6.50;99.90
45409;DHT22;31162;51.076;3.784;2024-02-26T15:38:47;6.50;99.90
45409;DHT22;31162;51.076;3.784;2024-02-26T15:41:13;6.50;99.90
45409;DHT22;31162;51.076;3.784;2024-02-26T15:43:39;6.60;99.90
45409;DHT22;31162;51.076;3.784;2024-02-26T15:46:05;6.60;99.90
45409;DHT22;31162;51.076;3.784;2024-02-26T15:48:31;6.60;99.90